createdAt,value
2017-03-27T00:01:01.844Z,4.77
2017-03-27T00:02:02.198Z,4.67
2017-03-27T00:03:01.883Z,4.65
2017-03-27T00:04:02.206Z,4.67
2017-03-27T00:05:02.227Z,4.63
2017-03-27T00:06:16.857Z,4.69
2017-03-27T00:07:16.876Z,4.72
2017-03-27T00:08:16.894Z,4.72
2017-03-27T00:09:02.296Z,4.7
2017-03-27T00:10:02.318Z,4.77
2017-03-27T00:11:02.332Z,4.75
2017-03-27T00:13:02.368Z,4.89
2017-03-27T00:14:02.393Z,5.09
2017-03-27T00:15:02.411Z,5.07
2017-03-27T00:16:02.121Z,5.02
2017-03-27T00:17:02.140Z,4.88
2017-03-27T00:18:02.474Z,4.78
2017-03-27T00:19:02.179Z,4.69
2017-03-27T00:20:02.196Z,4.66
2017-03-27T00:22:02.540Z,4.59
2017-03-27T00:23:02.251Z,4.59
2017-03-27T00:24:02.572Z,4.59
2017-03-27T00:25:02.594Z,4.59
2017-03-27T00:26:02.607Z,4.54
2017-03-27T00:27:17.241Z,4.48
2017-03-27T00:28:02.645Z,4.47
2017-03-27T00:29:02.664Z,4.44
2017-03-27T00:30:02.685Z,4.47
2017-03-27T00:31:02.697Z,4.5
2017-03-27T00:32:02.718Z,4.52
2017-03-27T00:33:02.737Z,4.69
2017-03-27T00:34:02.753Z,4.69
2017-03-27T00:35:02.470Z,4.69
2017-03-27T00:36:02.485Z,4.55
2017-03-27T00:37:02.503Z,4.54
2017-03-27T00:38:17.442Z,4.34
2017-03-27T00:39:02.541Z,4.32
2017-03-27T00:40:02.865Z,4.24
2017-03-27T00:41:17.494Z,4.26
2017-03-27T00:42:02.597Z,4.22
2017-03-27T00:43:17.536Z,4.26
2017-03-27T00:44:02.936Z,4.26
2017-03-27T00:45:02.955Z,4.22
2017-03-27T00:46:02.970Z,4.4
2017-03-27T00:47:02.990Z,4.41
2017-03-27T00:48:03.009Z,4.5
2017-03-27T00:49:03.028Z,4.37
2017-03-27T00:50:03.043Z,4.3
2017-03-27T00:51:03.060Z,4.2
2017-03-27T00:52:03.078Z,4.14
2017-03-27T00:54:03.118Z,4
2017-03-27T00:55:17.749Z,3.96
2017-03-27T00:56:03.150Z,4
2017-03-27T00:57:03.167Z,4
2017-03-27T00:58:03.190Z,3.98
2017-03-27T00:59:17.824Z,3.98
2017-03-27T01:00:03.229Z,3.98
2017-03-27T01:01:03.239Z,4.15
2017-03-27T01:02:03.259Z,4.33
2017-03-27T01:03:03.280Z,4.3
2017-03-27T01:04:03.294Z,4.22
2017-03-27T01:05:03.312Z,4.12
2017-03-27T01:06:03.029Z,4.04
2017-03-27T01:08:03.373Z,3.97
2017-03-27T01:09:03.386Z,4.04
2017-03-27T01:10:03.404Z,4
2017-03-27T01:11:03.420Z,3.93
2017-03-27T01:12:03.456Z,3.98
2017-03-27T01:13:03.467Z,3.91
2017-03-27T01:14:03.484Z,3.79
2017-03-27T01:15:18.107Z,3.9
2017-03-27T01:16:03.515Z,3.87
2017-03-27T01:18:03.548Z,3.73
2017-03-27T01:19:03.563Z,3.73
2017-03-27T01:20:03.582Z,3.6
2017-03-27T01:21:03.603Z,3.72
2017-03-27T01:22:03.621Z,3.76
2017-03-27T01:23:03.661Z,3.83
2017-03-27T01:24:03.662Z,3.78
2017-03-27T01:25:03.670Z,3.9
2017-03-27T01:26:18.303Z,3.91
2017-03-27T01:27:18.320Z,3.88
2017-03-27T01:28:03.724Z,3.94
2017-03-27T01:29:03.743Z,3.83
2017-03-27T01:30:18.374Z,3.75
2017-03-27T01:31:03.778Z,3.84
2017-03-27T01:32:03.793Z,3.9
2017-03-27T01:33:03.816Z,4.02
2017-03-27T01:34:03.832Z,3.94
2017-03-27T01:35:03.847Z,3.93
2017-03-27T01:36:03.873Z,3.9
2017-03-27T01:38:18.519Z,3.93
2017-03-27T01:39:03.920Z,4
2017-03-27T01:40:03.632Z,3.94
2017-03-27T01:41:03.650Z,3.86
2017-03-27T01:42:03.974Z,3.83
2017-03-27T01:43:18.603Z,3.79
2017-03-27T01:44:04.009Z,3.84
2017-03-27T01:45:04.025Z,3.86
2017-03-27T01:46:04.043Z,3.91
2017-03-27T01:47:04.056Z,3.83
2017-03-27T01:48:04.079Z,3.8
2017-03-27T01:49:04.094Z,3.7
2017-03-27T01:50:04.112Z,3.66
2017-03-27T01:51:04.128Z,3.57
2017-03-27T01:52:04.167Z,3.55
2017-03-27T01:54:04.188Z,3.5
2017-03-27T01:55:04.203Z,3.61
2017-03-27T01:56:04.216Z,3.52
2017-03-27T01:57:04.237Z,3.42
2017-03-27T01:58:04.253Z,3.51
2017-03-27T01:59:04.275Z,3.45
2017-03-27T02:00:04.287Z,3.4
2017-03-27T02:01:04.001Z,3.39
2017-03-27T02:02:18.942Z,3.32
2017-03-27T02:03:04.340Z,3.33
2017-03-27T02:04:04.359Z,3.33
2017-03-27T02:05:04.373Z,3.4
2017-03-27T02:06:04.392Z,3.31
2017-03-27T02:07:04.410Z,3.32
2017-03-27T02:08:04.427Z,3.32
2017-03-27T02:10:04.462Z,3.35
2017-03-27T02:11:04.480Z,3.33
2017-03-27T02:12:04.495Z,3.36
2017-03-27T02:13:19.130Z,3.32
2017-03-27T02:14:04.534Z,3.31
2017-03-27T02:15:04.558Z,3.26
2017-03-27T02:16:04.565Z,3.33
2017-03-27T02:17:04.583Z,3.39
2017-03-27T02:18:19.215Z,3.35
2017-03-27T02:19:04.317Z,3.47
2017-03-27T02:20:04.637Z,3.45
2017-03-27T02:21:04.653Z,3.42
2017-03-27T02:22:04.702Z,3.51
2017-03-27T02:23:04.691Z,3.42
2017-03-27T02:24:19.326Z,3.61
2017-03-27T02:25:04.720Z,3.55
2017-03-27T02:27:04.757Z,3.5
2017-03-27T02:28:04.476Z,3.42
2017-03-27T02:29:04.795Z,3.4
2017-03-27T02:30:04.811Z,3.29
2017-03-27T02:31:04.825Z,3.18
2017-03-27T02:32:04.842Z,3.17
2017-03-27T02:33:04.860Z,3.11
2017-03-27T02:34:19.493Z,3.08
2017-03-27T02:35:04.896Z,3.03
2017-03-27T02:36:04.913Z,3.05
2017-03-27T02:37:04.929Z,3.02
2017-03-27T02:38:04.947Z,3
2017-03-27T02:39:04.960Z,3.02
2017-03-27T02:40:04.979Z,3
2017-03-27T02:41:04.704Z,2.95
2017-03-27T02:42:05.013Z,2.95
2017-03-27T02:43:05.033Z,2.93
2017-03-27T02:44:05.049Z,2.89
2017-03-27T02:45:05.064Z,2.89
2017-03-27T02:46:19.698Z,2.92
2017-03-27T02:47:05.100Z,2.99
2017-03-27T02:48:05.120Z,3.05
2017-03-27T02:49:05.135Z,3.05
2017-03-27T02:50:19.464Z,3
2017-03-27T02:51:05.170Z,2.95
2017-03-27T02:52:05.185Z,2.99
2017-03-27T02:53:05.202Z,2.96
2017-03-27T02:54:05.220Z,2.99
2017-03-27T02:55:05.237Z,2.92
2017-03-27T02:56:05.255Z,2.95
2017-03-27T02:57:05.272Z,2.92
2017-03-27T02:59:05.303Z,2.87
2017-03-27T03:00:05.323Z,2.77
2017-03-27T03:02:19.972Z,2.78
2017-03-27T03:03:19.987Z,2.69
2017-03-27T03:04:05.390Z,2.75
2017-03-27T03:05:20.023Z,2.77
2017-03-27T03:06:05.426Z,2.84
2017-03-27T03:07:05.441Z,2.92
2017-03-27T03:08:05.460Z,2.95
2017-03-27T03:09:05.477Z,3.02
2017-03-27T03:10:05.495Z,3.08
2017-03-27T03:11:05.510Z,3.13
2017-03-27T03:13:05.546Z,2.97
2017-03-27T03:14:05.563Z,2.93
2017-03-27T03:15:05.275Z,2.81
2017-03-27T03:16:20.211Z,2.81
2017-03-27T03:17:05.618Z,2.79
2017-03-27T03:18:05.633Z,2.71
2017-03-27T03:19:05.649Z,2.74
2017-03-27T03:20:05.661Z,2.71
2017-03-27T03:21:05.682Z,2.69
2017-03-27T03:22:05.394Z,2.67
2017-03-27T03:23:05.717Z,2.59
2017-03-27T03:24:05.735Z,2.56
2017-03-27T03:25:05.752Z,2.56
2017-03-27T03:26:05.767Z,2.66
2017-03-27T03:27:05.785Z,2.57
2017-03-27T03:28:05.803Z,2.6
2017-03-27T03:30:05.834Z,2.56
2017-03-27T03:31:05.856Z,2.69
2017-03-27T03:32:05.904Z,2.72
2017-03-27T03:33:05.895Z,2.71
2017-03-27T03:34:05.905Z,2.69
2017-03-27T03:35:05.614Z,2.59
2017-03-27T03:36:05.633Z,2.53
2017-03-27T03:37:20.565Z,2.42
2017-03-27T03:38:05.983Z,2.54
2017-03-27T03:39:20.611Z,2.52
2017-03-27T03:40:05.700Z,2.56
2017-03-27T03:41:06.033Z,2.52
2017-03-27T03:42:06.048Z,2.45
2017-03-27T03:43:06.062Z,2.36
2017-03-27T03:44:06.067Z,2.41
2017-03-27T03:45:06.092Z,2.36
2017-03-27T03:46:06.103Z,2.35
2017-03-27T03:47:05.814Z,2.34
2017-03-27T03:48:06.142Z,2.43
2017-03-27T03:49:20.768Z,2.38
2017-03-27T03:50:06.170Z,2.36
2017-03-27T03:51:06.188Z,2.42
2017-03-27T03:52:06.201Z,2.43
2017-03-27T03:53:20.834Z,2.42
2017-03-27T03:54:06.257Z,2.43
2017-03-27T03:55:06.251Z,2.49
2017-03-27T03:56:06.282Z,2.46
2017-03-27T03:57:06.289Z,2.46
2017-03-27T03:58:06.301Z,2.49
2017-03-27T03:59:06.322Z,2.41
2017-03-27T04:00:06.041Z,2.28
2017-03-27T04:01:06.355Z,2.3
2017-03-27T04:02:06.370Z,2.31
2017-03-27T04:03:06.390Z,2.28
2017-03-27T04:04:06.406Z,2.34
2017-03-27T04:05:06.427Z,2.3
2017-03-27T04:06:06.435Z,2.25
2017-03-27T04:07:06.149Z,2.28
2017-03-27T04:08:06.472Z,2.24
2017-03-27T04:09:21.102Z,2.34
2017-03-27T04:10:06.503Z,2.35
2017-03-27T04:11:06.520Z,2.28
2017-03-27T04:12:06.535Z,2.34
2017-03-27T04:13:06.556Z,2.35
2017-03-27T04:14:06.571Z,2.31
2017-03-27T04:17:06.622Z,2.17
2017-03-27T04:18:06.636Z,2.17
2017-03-27T04:19:06.657Z,2.14
2017-03-27T04:20:21.285Z,2.12
2017-03-27T04:21:06.687Z,2.18
2017-03-27T04:22:06.701Z,2.23
2017-03-27T04:23:06.721Z,2.14
2017-03-27T04:24:06.742Z,2.2
2017-03-27T04:25:21.372Z,2.18
2017-03-27T04:26:06.772Z,2.35
2017-03-27T04:27:06.786Z,2.34
2017-03-27T04:28:06.804Z,2.39
2017-03-27T04:29:06.819Z,2.31
2017-03-27T04:30:06.833Z,2.35
2017-03-27T04:31:06.849Z,2.24
2017-03-27T04:32:06.868Z,2.18
2017-03-27T04:33:06.886Z,2.21
2017-03-27T04:34:06.598Z,2.1
2017-03-27T04:35:06.618Z,2.21
2017-03-27T04:36:06.629Z,2.14
2017-03-27T04:37:06.648Z,2.18
2017-03-27T04:38:06.979Z,2.14
2017-03-27T04:39:06.984Z,2.05
2017-03-27T04:40:21.311Z,2.03
2017-03-27T04:41:07.014Z,2.02
2017-03-27T04:42:07.033Z,2.03
2017-03-27T04:43:07.051Z,2.07
2017-03-27T04:44:07.065Z,2.07
2017-03-27T04:45:07.082Z,1.95
2017-03-27T04:46:07.096Z,2.03
2017-03-27T04:47:07.120Z,2.06
2017-03-27T04:48:07.135Z,2.06
2017-03-27T04:49:21.766Z,2.06
2017-03-27T04:50:07.162Z,2.14
2017-03-27T04:51:07.180Z,2.16
2017-03-27T04:52:07.198Z,2.09
2017-03-27T04:53:07.214Z,2.03
2017-03-27T04:54:07.232Z,2.12
2017-03-27T04:55:07.246Z,2.1
2017-03-27T04:56:07.261Z,2.16
2017-03-27T04:57:07.281Z,2.14
2017-03-27T04:58:07.295Z,2.2
2017-03-27T04:59:07.313Z,2.28
2017-03-27T05:00:07.022Z,2.27
2017-03-27T05:01:21.968Z,2.36
2017-03-27T05:02:07.058Z,2.38
2017-03-27T05:03:07.377Z,2.39
2017-03-27T05:04:07.405Z,2.41
2017-03-27T05:05:21.724Z,2.49
2017-03-27T05:07:07.442Z,2.45
2017-03-27T05:08:07.154Z,2.34
2017-03-27T05:09:07.478Z,2.31
2017-03-27T05:10:07.497Z,2.38
2017-03-27T05:11:07.511Z,2.43
2017-03-27T05:12:22.141Z,2.48
2017-03-27T05:13:07.546Z,2.63
2017-03-27T05:14:07.559Z,2.59
2017-03-27T05:15:07.574Z,2.53
2017-03-27T05:16:07.288Z,2.61
2017-03-27T05:17:07.609Z,2.53
2017-03-27T05:18:07.628Z,2.39
2017-03-27T05:19:07.640Z,2.42
2017-03-27T05:20:07.359Z,2.43
2017-03-27T05:21:07.674Z,2.38
2017-03-27T05:22:07.697Z,2.35
2017-03-27T05:23:07.710Z,2.48
2017-03-27T05:24:07.723Z,2.57
2017-03-27T05:25:07.742Z,2.71
2017-03-27T05:26:07.453Z,3.06
2017-03-27T05:27:07.470Z,3.36
2017-03-27T05:28:22.409Z,3.58
2017-03-27T05:29:07.807Z,3.58
2017-03-27T05:30:07.519Z,3.51
2017-03-27T05:31:07.841Z,3.45
2017-03-27T05:32:07.862Z,3.48
2017-03-27T05:33:07.883Z,3.52
2017-03-27T05:34:07.896Z,3.61
2017-03-27T05:35:07.912Z,3.66
2017-03-27T05:37:07.951Z,3.79
2017-03-27T05:38:07.969Z,3.87
2017-03-27T05:39:22.602Z,3.9
2017-03-27T05:40:07.705Z,4.02
2017-03-27T05:41:08.025Z,4.18
2017-03-27T05:42:08.040Z,4.33
2017-03-27T05:43:08.068Z,4.55
2017-03-27T05:44:22.694Z,4.67
2017-03-27T05:45:07.798Z,4.94
2017-03-27T05:46:08.114Z,5.33
2017-03-27T05:47:07.845Z,5.4
2017-03-27T05:48:08.190Z,5.57
2017-03-27T05:50:08.199Z,5.48
2017-03-27T05:51:08.220Z,5.42
2017-03-27T05:52:07.631Z,5.51
2017-03-27T05:53:08.261Z,5.51
2017-03-27T05:54:08.284Z,5.57
2017-03-27T05:55:07.695Z,5.54
2017-03-27T05:56:22.938Z,5.71
2017-03-27T05:57:08.040Z,5.83
2017-03-27T05:58:08.062Z,6.01
2017-03-27T05:59:08.080Z,6.01
2017-03-27T06:00:23.020Z,6.14
2017-03-27T06:01:08.430Z,6.33
2017-03-27T06:02:08.452Z,6.51
2017-03-27T06:04:08.191Z,6.88
2017-03-27T06:05:08.666Z,7.12
2017-03-27T06:06:08.542Z,7.31
2017-03-27T06:07:08.560Z,7.57
2017-03-27T06:09:08.610Z,8.04
2017-03-27T06:10:23.249Z,8.41
2017-03-27T06:11:23.273Z,8.59
2017-03-27T06:12:22.994Z,8.98
2017-03-27T06:13:08.710Z,9.08
2017-03-27T06:14:08.733Z,9.33
2017-03-27T06:15:23.069Z,9.46
2017-03-27T06:16:08.781Z,9.61
2017-03-27T06:17:08.807Z,9.84
2017-03-27T06:18:08.834Z,9.99
2017-03-27T06:19:08.860Z,10.07
2017-03-27T06:20:08.885Z,10.34
2017-03-27T06:22:08.636Z,10.41
2017-03-27T06:23:08.966Z,10.6
2017-03-27T06:24:08.991Z,10.88
2017-03-27T06:26:09.085Z,11.21
2017-03-27T06:27:09.083Z,11.42
2017-03-27T06:28:09.105Z,11.72
2017-03-27T06:29:09.132Z,11.65
2017-03-27T06:30:08.860Z,11.78
2017-03-27T06:31:09.189Z,12.01
2017-03-27T06:32:09.221Z,12.02
2017-03-27T06:33:09.249Z,12.29
2017-03-27T06:34:09.280Z,12.31
2017-03-27T06:35:09.307Z,12.52
2017-03-27T06:36:08.728Z,12.74
2017-03-27T06:37:09.395Z,12.86
2017-03-27T06:39:09.430Z,12.89
2017-03-27T06:40:09.461Z,13.08
2017-03-27T06:41:23.806Z,13.01
2017-03-27T06:42:09.215Z,13.38
2017-03-27T06:43:09.552Z,13.36
2017-03-27T06:44:08.975Z,13.57
2017-03-27T06:45:09.007Z,13.67
2017-03-27T06:46:09.642Z,13.96
2017-03-27T06:47:24.293Z,14.12
2017-03-27T06:48:09.404Z,14.2
2017-03-27T06:49:09.742Z,14.18
2017-03-27T06:50:09.773Z,14.37
2017-03-27T06:51:09.803Z,14.46
2017-03-27T06:52:09.835Z,14.51
2017-03-27T06:53:09.871Z,14.69
2017-03-27T06:54:09.895Z,14.84
2017-03-27T06:55:09.628Z,14.75
2017-03-27T06:56:09.990Z,15.03
2017-03-27T06:57:09.997Z,15.25
2017-03-27T06:58:24.648Z,15.29
2017-03-27T06:59:10.062Z,15.2
2017-03-27T07:00:24.712Z,15.28
2017-03-27T07:01:10.128Z,15.34
2017-03-27T07:02:09.552Z,15.47
2017-03-27T07:03:24.813Z,15.56
2017-03-27T07:04:10.228Z,15.83
2017-03-27T07:05:10.262Z,15.82
2017-03-27T07:06:10.293Z,16.02
2017-03-27T07:07:10.341Z,16.15
2017-03-27T07:08:10.057Z,16.09
2017-03-27T07:09:10.090Z,16.25
2017-03-27T07:10:10.430Z,16.38
2017-03-27T07:12:10.492Z,16.45
2017-03-27T07:13:10.529Z,16.49
2017-03-27T07:14:10.567Z,16.5
2017-03-27T07:15:25.215Z,16.52
2017-03-27T07:16:10.324Z,16.66
2017-03-27T07:17:10.668Z,16.86
2017-03-27T07:18:10.699Z,16.83
2017-03-27T07:19:25.352Z,17.12
2017-03-27T07:20:10.763Z,17.21
2017-03-27T07:21:10.802Z,17.08
2017-03-27T07:22:10.842Z,17.12
2017-03-27T07:23:10.869Z,17.41
2017-03-27T07:24:10.901Z,17.37
2017-03-27T07:25:10.945Z,17.18
2017-03-27T07:26:10.967Z,17.19
2017-03-27T07:27:10.701Z,17.52
2017-03-27T07:28:10.767Z,17.38
2017-03-27T07:29:11.074Z,17.71
2017-03-27T07:30:11.107Z,17.86
2017-03-27T07:31:25.759Z,17.82
2017-03-27T07:32:11.178Z,17.96
2017-03-27T07:33:11.212Z,17.82
2017-03-27T07:34:11.246Z,17.86
2017-03-27T07:35:25.895Z,17.93
2017-03-27T07:36:11.314Z,17.92
2017-03-27T07:37:11.345Z,17.96
2017-03-27T07:38:11.381Z,18.1
2017-03-27T07:39:11.414Z,18.3
2017-03-27T07:40:11.150Z,18.3
2017-03-27T07:41:11.481Z,18.32
2017-03-27T07:42:26.141Z,18.51
2017-03-27T07:43:11.550Z,18.47
2017-03-27T07:45:11.317Z,18.67
2017-03-27T07:46:11.653Z,18.82
2017-03-27T07:47:11.690Z,18.72
2017-03-27T07:48:26.341Z,18.87
2017-03-27T07:49:11.455Z,19.07
2017-03-27T07:50:26.419Z,19.08
2017-03-27T07:51:11.522Z,18.9
2017-03-27T07:52:11.557Z,19.14
2017-03-27T07:53:11.893Z,19.08
2017-03-27T07:54:11.621Z,19.04
2017-03-27T07:55:11.961Z,18.98
2017-03-27T07:56:11.994Z,19.26
2017-03-27T07:58:12.068Z,18.72
2017-03-27T07:59:12.096Z,18.94
2017-03-27T08:00:11.527Z,18.85
2017-03-27T08:01:26.782Z,18.76
2017-03-27T08:02:12.205Z,18.7
2017-03-27T08:03:26.544Z,18.91
2017-03-27T08:04:12.299Z,19.1
2017-03-27T08:05:12.296Z,19.29
2017-03-27T08:06:12.330Z,19.33
2017-03-27T08:07:12.368Z,19.25
2017-03-27T08:08:12.399Z,19.13
2017-03-27T08:09:12.430Z,18.9
2017-03-27T08:10:12.482Z,18.91
2017-03-27T08:11:12.494Z,18.76
2017-03-27T08:12:12.225Z,19.02
2017-03-27T08:13:12.565Z,18.87
2017-03-27T08:14:12.295Z,19.07
2017-03-27T08:15:12.632Z,19.13
2017-03-27T08:16:12.662Z,19.26
2017-03-27T08:17:12.693Z,19.58
2017-03-27T08:18:12.729Z,19.78
2017-03-27T08:19:12.764Z,19.94
2017-03-27T08:20:12.793Z,19.94
2017-03-27T08:21:12.822Z,20.03
2017-03-27T08:22:27.477Z,20.21
2017-03-27T08:23:12.888Z,20.16
2017-03-27T08:24:12.921Z,20.02
2017-03-27T08:25:12.965Z,20.1
2017-03-27T08:26:12.985Z,20.05
2017-03-27T08:27:12.721Z,20.01
2017-03-27T08:29:12.780Z,20.11
2017-03-27T08:31:13.150Z,20.05
2017-03-27T08:32:13.184Z,19.84
2017-03-27T08:33:13.223Z,20.11
2017-03-27T08:34:13.248Z,19.86
2017-03-27T08:35:13.281Z,20.17
2017-03-27T08:36:27.929Z,19.94
2017-03-27T08:37:13.343Z,19.99
2017-03-27T08:38:27.996Z,19.77
2017-03-27T08:39:13.409Z,19.59
2017-03-27T08:40:13.442Z,19.81
2017-03-27T08:41:13.472Z,20.03
2017-03-27T08:42:13.508Z,20.21
2017-03-27T08:43:13.540Z,20.11
2017-03-27T08:44:13.567Z,20.1
2017-03-27T08:45:13.604Z,20.23
2017-03-27T08:46:13.635Z,20.39
2017-03-27T08:47:13.665Z,20.41
2017-03-27T08:48:13.697Z,20.5
2017-03-27T08:49:28.045Z,19.86
2017-03-27T08:50:13.475Z,19.59
2017-03-27T08:51:13.791Z,19.88
2017-03-27T08:52:13.863Z,19.77
2017-03-27T08:53:13.549Z,19.78
2017-03-27T08:54:28.510Z,20.11
2017-03-27T08:55:13.920Z,19.98
2017-03-27T08:56:13.959Z,19.76
2017-03-27T08:57:13.680Z,19.88
2017-03-27T08:58:14.017Z,19.51
2017-03-27T08:59:14.057Z,19.77
2017-03-27T09:00:14.084Z,19.74
2017-03-27T09:01:14.109Z,19.63
2017-03-27T09:03:14.175Z,20.01
2017-03-27T09:04:14.205Z,19.66
2017-03-27T09:05:13.934Z,19.69
2017-03-27T09:06:14.265Z,19.95
2017-03-27T09:07:14.302Z,19.98
2017-03-27T09:08:14.332Z,20.02
2017-03-27T09:09:14.362Z,20.01
2017-03-27T09:10:28.707Z,20.01
2017-03-27T09:11:14.460Z,20.02
2017-03-27T09:12:14.454Z,20.21
2017-03-27T09:13:14.487Z,20.28
2017-03-27T09:14:14.521Z,20.39
2017-03-27T09:15:14.551Z,20.57
2017-03-27T09:16:14.275Z,20.43
2017-03-27T09:17:14.615Z,19.62
2017-03-27T09:18:14.646Z,19.74
2017-03-27T09:19:14.676Z,20.05
2017-03-27T09:20:14.702Z,20.02
2017-03-27T09:21:14.738Z,20.24
2017-03-27T09:22:29.386Z,20.33
2017-03-27T09:23:14.498Z,20.64
2017-03-27T09:24:14.526Z,20.7
2017-03-27T09:25:29.480Z,20.73
2017-03-27T09:26:14.893Z,20.69
2017-03-27T09:27:14.921Z,20.59
2017-03-27T09:28:14.952Z,20.47
2017-03-27T09:29:14.994Z,20.73
2017-03-27T09:30:15.013Z,20.67
2017-03-27T09:31:15.045Z,20.32
2017-03-27T09:33:15.109Z,20.14
2017-03-27T09:34:15.147Z,20.17
2017-03-27T09:35:15.170Z,20.26
2017-03-27T09:36:29.820Z,20.58
2017-03-27T09:37:15.230Z,20.41
2017-03-27T09:38:15.261Z,20.31
2017-03-27T09:39:15.297Z,20.5
2017-03-27T09:40:15.325Z,20.55
2017-03-27T09:41:15.353Z,20.57
2017-03-27T09:42:15.388Z,20.48
2017-03-27T09:43:15.421Z,20.33
2017-03-27T09:44:15.146Z,20.38
2017-03-27T09:45:15.514Z,20.32
2017-03-27T09:46:15.514Z,20.14
2017-03-27T09:47:15.539Z,20.39
2017-03-27T09:48:15.579Z,20.58
2017-03-27T09:49:15.596Z,20.35
2017-03-27T09:51:15.660Z,20.72
2017-03-27T09:52:30.311Z,20.13
2017-03-27T09:53:15.721Z,20.02
2017-03-27T09:54:16.056Z,20.1
2017-03-27T09:55:15.788Z,20.1
2017-03-27T09:57:30.461Z,19.06
2017-03-27T09:58:15.875Z,19.21
2017-03-27T09:59:15.602Z,19.32
2017-03-27T10:00:15.637Z,19.33
2017-03-27T10:01:15.963Z,19.58
2017-03-27T10:02:15.994Z,19.73
2017-03-27T10:03:15.730Z,20.08
2017-03-27T10:04:15.754Z,20.17
2017-03-27T10:05:16.120Z,19.84
2017-03-27T10:06:16.117Z,19.78
2017-03-27T10:08:16.180Z,20.5
2017-03-27T10:09:16.204Z,20.42
2017-03-27T10:10:30.850Z,20.43
2017-03-27T10:11:16.264Z,20.29
2017-03-27T10:12:16.291Z,20.1
2017-03-27T10:14:16.350Z,19.13
2017-03-27T10:15:16.381Z,18.85
2017-03-27T10:16:16.410Z,18.87
2017-03-27T10:17:16.442Z,19.1
2017-03-27T10:19:16.501Z,18.52
2017-03-27T10:20:16.533Z,18.41
2017-03-27T10:21:16.557Z,18.47
2017-03-27T10:22:31.210Z,17.75
2017-03-27T10:23:16.619Z,17.59
2017-03-27T10:24:31.265Z,17.34
2017-03-27T10:25:16.681Z,17.38
2017-03-27T10:26:31.723Z,17.41
2017-03-27T10:27:16.738Z,17.26
2017-03-27T10:28:16.766Z,17.48
2017-03-27T10:29:31.411Z,17.71
2017-03-27T10:30:16.830Z,17.86
2017-03-27T10:31:16.850Z,18.14
2017-03-27T10:32:16.879Z,18.17
2017-03-27T10:33:16.910Z,18.25
2017-03-27T10:34:16.937Z,18.26
2017-03-27T10:35:16.962Z,18.41
2017-03-27T10:37:17.021Z,18.41
2017-03-27T10:38:17.055Z,18.39
2017-03-27T10:39:17.079Z,18.26
2017-03-27T10:40:17.106Z,18.32
2017-03-27T10:41:17.136Z,18.42
2017-03-27T10:42:17.167Z,18.36
2017-03-27T10:43:17.212Z,18.35
2017-03-27T10:44:17.222Z,18.36
2017-03-27T10:45:31.865Z,18.29
2017-03-27T10:46:17.278Z,18.23
2017-03-27T10:47:17.303Z,18.25
2017-03-27T10:48:17.340Z,18.14
2017-03-27T10:49:17.062Z,18.07
2017-03-27T10:50:17.082Z,17.92
2017-03-27T10:52:17.440Z,18.11
2017-03-27T10:53:17.471Z,18.15
2017-03-27T10:54:17.195Z,18.21
2017-03-27T10:55:32.142Z,18.41
2017-03-27T10:56:17.249Z,18.39
2017-03-27T10:57:17.295Z,18.48
2017-03-27T10:58:17.606Z,18.5
2017-03-27T10:59:17.334Z,18.47
2017-03-27T11:00:32.277Z,18.44
2017-03-27T11:01:17.688Z,18.5
2017-03-27T11:02:17.415Z,18.51
2017-03-27T11:03:17.744Z,18.33
2017-03-27T11:04:17.773Z,18.1
2017-03-27T11:05:17.793Z,17.92
2017-03-27T11:06:17.827Z,17.84
2017-03-27T11:07:17.545Z,17.95
2017-03-27T11:08:17.877Z,17.92
2017-03-27T11:09:17.903Z,18.1
2017-03-27T11:10:17.933Z,18.08
2017-03-27T11:11:17.956Z,17.97
2017-03-27T11:12:17.983Z,18.14
2017-03-27T11:13:32.628Z,18.18
2017-03-27T11:14:18.042Z,18.3
2017-03-27T11:15:18.063Z,18.07
2017-03-27T11:16:18.091Z,17.99
2017-03-27T11:17:18.119Z,17.79
2017-03-27T11:18:18.152Z,17.71
2017-03-27T11:19:18.173Z,17.7
2017-03-27T11:20:18.199Z,17.72
2017-03-27T11:21:18.221Z,17.81
2017-03-27T11:22:18.249Z,17.64
2017-03-27T11:23:18.276Z,17.79
2017-03-27T11:26:18.353Z,17.92
2017-03-27T11:27:33.000Z,17.86
2017-03-27T11:28:18.105Z,17.74
2017-03-27T11:29:18.438Z,17.64
2017-03-27T11:30:18.467Z,17.52
2017-03-27T11:31:18.486Z,17.77
2017-03-27T11:32:33.130Z,17.66
2017-03-27T11:33:18.537Z,17.64
2017-03-27T11:34:18.568Z,17.78
2017-03-27T11:35:18.598Z,17.9
2017-03-27T11:36:18.618Z,18.2
2017-03-27T11:39:18.699Z,18.29
2017-03-27T11:42:18.477Z,17.96
2017-03-27T11:43:33.418Z,17.93
2017-03-27T11:44:33.138Z,17.92
2017-03-27T11:45:33.476Z,17.95
2017-03-27T11:46:33.494Z,18.15
2017-03-27T11:47:18.906Z,18.15
2017-03-27T11:48:33.561Z,18.3
2017-03-27T11:49:18.348Z,18.37
2017-03-27T11:50:19.000Z,18.37
2017-03-27T11:51:19.007Z,18.42
2017-03-27T11:52:18.737Z,18.44
2017-03-27T11:53:19.059Z,18.44
2017-03-27T11:54:18.786Z,18.42
2017-03-27T11:56:18.855Z,18.37
2017-03-27T11:58:19.212Z,18.35
2017-03-27T11:59:18.925Z,18.35
2017-03-27T12:00:18.968Z,18.39
2017-03-27T12:01:18.964Z,18.45
2017-03-27T12:02:18.997Z,18.33
2017-03-27T12:03:19.345Z,18.51
2017-03-27T12:04:33.965Z,18.35
2017-03-27T12:05:19.076Z,18.35
2017-03-27T12:06:19.094Z,18.25
2017-03-27T12:07:19.119Z,17.68
2017-03-27T12:08:19.147Z,17.3
2017-03-27T12:09:19.173Z,17.14
2017-03-27T12:10:19.202Z,17.19
2017-03-27T12:11:19.224Z,17.28
2017-03-27T12:12:19.556Z,17.54
2017-03-27T12:13:19.282Z,17.71
2017-03-27T12:14:19.611Z,17.84
2017-03-27T12:15:34.249Z,17.89
2017-03-27T12:16:19.653Z,17.93
2017-03-27T12:17:34.299Z,17.74
2017-03-27T12:18:19.710Z,17.52
2017-03-27T12:19:19.431Z,17.34
2017-03-27T12:20:34.384Z,17.34
2017-03-27T12:21:19.784Z,17.38
2017-03-27T12:22:19.204Z,17.56
2017-03-27T12:23:19.547Z,17.64
2017-03-27T12:24:19.571Z,17.68
2017-03-27T12:25:19.281Z,17.74
2017-03-27T12:26:19.638Z,17.87
2017-03-27T12:27:19.937Z,17.92
2017-03-27T12:28:19.661Z,17.9
2017-03-27T12:29:20.018Z,18.02
2017-03-27T12:30:19.711Z,17.97
2017-03-27T12:31:19.738Z,18.07
2017-03-27T12:32:34.686Z,18.12
2017-03-27T12:33:20.094Z,18.11
2017-03-27T12:34:19.816Z,18.14
2017-03-27T12:35:34.462Z,18.23
2017-03-27T12:36:20.201Z,18.11
2017-03-27T12:37:20.197Z,18.17
2017-03-27T12:38:20.233Z,18.1
2017-03-27T12:39:20.250Z,17.97
2017-03-27T12:40:19.971Z,17.99
2017-03-27T12:41:20.315Z,17.87
2017-03-27T12:42:19.721Z,18.02
2017-03-27T12:43:20.079Z,17.95
2017-03-27T12:45:35.022Z,17.55
2017-03-27T12:46:20.433Z,17.55
2017-03-27T12:47:34.776Z,17.68
2017-03-27T12:48:20.196Z,17.68
2017-03-27T12:49:19.900Z,17.56
2017-03-27T12:50:20.242Z,17.51
2017-03-27T12:51:20.560Z,17.28
2017-03-27T12:52:20.583Z,17.26
2017-03-27T12:53:20.608Z,17.37
2017-03-27T12:54:20.331Z,17.58
2017-03-27T12:55:20.354Z,17.63
2017-03-27T12:56:20.720Z,17.82
2017-03-27T12:57:20.427Z,18.05
2017-03-27T12:59:20.460Z,17.93
2017-03-27T13:00:20.196Z,18.11
2017-03-27T13:01:20.520Z,18.03
2017-03-27T13:02:35.461Z,17.92
2017-03-27T13:03:20.863Z,18.12
2017-03-27T13:04:20.891Z,18.08
2017-03-27T13:05:35.531Z,17.71
2017-03-27T13:06:20.944Z,17.63
2017-03-27T13:07:35.586Z,17.55
2017-03-27T13:08:20.997Z,17.63
2017-03-27T13:09:20.712Z,17.59
2017-03-27T13:10:20.736Z,17.59
2017-03-27T13:11:21.067Z,17.75
2017-03-27T13:12:21.096Z,17.79
2017-03-27T13:13:21.122Z,17.79
2017-03-27T13:14:21.149Z,17.78
2017-03-27T13:15:21.169Z,17.93
2017-03-27T13:18:20.944Z,17.92
2017-03-27T13:19:21.274Z,17.81
2017-03-27T13:20:21.353Z,17.79
2017-03-27T13:21:21.348Z,17.71
2017-03-27T13:22:21.055Z,17.75
2017-03-27T13:23:35.702Z,17.84
2017-03-27T13:25:44.636Z,17.99
2017-03-27T13:26:44.631Z,17.93
2017-03-27T13:27:44.666Z,18.07
2017-03-27T13:28:44.387Z,18.07
2017-03-27T13:29:44.408Z,18.14
2017-03-27T13:30:44.734Z,17.97
2017-03-27T13:31:44.758Z,18.08
2017-03-27T13:32:44.492Z,18.23
2017-03-27T13:33:44.812Z,18.29
2017-03-27T13:34:44.842Z,18.29
2017-03-27T13:35:59.477Z,18.42
2017-03-27T13:36:44.886Z,18.45
2017-03-27T13:37:44.914Z,18.5
2017-03-27T13:38:44.941Z,18.51
2017-03-27T13:39:44.965Z,18.45
2017-03-27T13:40:44.992Z,18.42
2017-03-27T13:41:44.708Z,18.57
2017-03-27T13:42:44.737Z,18.5
2017-03-27T13:43:44.763Z,18.41
2017-03-27T13:44:45.089Z,18.35
2017-03-27T13:45:45.122Z,18.41
2017-03-27T13:46:45.144Z,18.32
2017-03-27T13:47:45.177Z,18.35
2017-03-27T13:48:45.227Z,18.27
2017-03-27T13:49:59.834Z,18.08
2017-03-27T13:50:45.245Z,18.1
2017-03-27T13:51:59.891Z,18.03
2017-03-27T13:52:44.990Z,17.97
2017-03-27T13:53:45.014Z,17.89
2017-03-27T13:54:45.344Z,17.81
2017-03-27T13:55:45.370Z,17.97
2017-03-27T13:56:45.397Z,17.92
2017-03-27T13:57:45.419Z,17.97
2017-03-27T13:58:45.149Z,18.03